Terminal Aerodrome Forecast
Issued by NWS Des Moines, IA

Home | Current Version | Previous Version | Text Only | Print | Product List | Glossary On
Versions: 1 2 3 4 5 6 7 8 9 10 11 12 13 14 15 16 17 18 19 20 21 22 23 24 25 26 27 28 29
000
FTUS43 KDMX 250520
TAFALO
TAF
KALO 250520Z 2506/2606 VRB04KT P6SM SKC
     FM251100 17006KT P6SM VCTS FEW022CB OVC050
     FM251400 15006KT 5SM -TSRA SCT020 OVC040CB
     FM251700 16012KT P6SM VCTS BKN060CB
     FM252000 16015KT P6SM SCT040 BKN070
     FM260200 14006KT P6SM VCTS BKN035CB OVC060=

USA.gov is the U.S. government's official web portal to all federal, state and local government web resources and services.